sensor_id;sensor_type;location;lat;lon;timestamp;P1;durP1;ratioP1;P2;durP2;ratioP2
84084;SDS011;74175;41.730;44.734;2024-01-10T00:00:08;2.00;;;0.30;;
84084;SDS011;74175;41.730;44.734;2024-01-10T00:02:38;2.13;;;0.40;;
84084;SDS011;74175;41.730;44.734;2024-01-10T00:05:06;1.77;;;0.30;;
84084;SDS011;74175;41.730;44.734;2024-01-10T00:07:32;1.77;;;0.30;;
84084;SDS011;74175;41.730;44.734;2024-01-10T00:09:58;2.13;;;0.30;;
84084;SDS011;74175;41.730;44.734;2024-01-10T00:12:27;2.17;;;0.40;;
84084;SDS011;74175;41.730;44.734;2024-01-10T00:14:59;2.58;;;0.50;;
84084;SDS011;74175;41.730;44.734;2024-01-10T00:17:25;2.73;;;0.40;;
84084;SDS011;74175;41.730;44.734;2024-01-10T00:19:51;2.22;;;0.40;;
84084;SDS011;74175;41.730;44.734;2024-01-10T00:22:20;2.25;;;0.50;;
84084;SDS011;74175;41.730;44.734;2024-01-10T00:24:46;3.10;;;0.40;;
84084;SDS011;74175;41.730;44.734;2024-01-10T00:27:13;2.35;;;0.50;;
84084;SDS011;74175;41.730;44.734;2024-01-10T00:29:39;2.10;;;0.40;;
84084;SDS011;74175;41.730;44.734;2024-01-10T00:32:05;2.67;;;0.30;;
84084;SDS011;74175;41.730;44.734;2024-01-10T00:34:32;2.53;;;0.40;;
84084;SDS011;74175;41.730;44.734;2024-01-10T00:36:58;2.42;;;0.40;;
84084;SDS011;74175;41.730;44.734;2024-01-10T00:39:24;1.88;;;0.30;;
84084;SDS011;74175;41.730;44.734;2024-01-10T00:41:50;2.70;;;0.30;;
84084;SDS011;74175;41.730;44.734;2024-01-10T00:44:16;2.43;;;0.40;;
84084;SDS011;74175;41.730;44.734;2024-01-10T00:46:42;1.80;;;0.30;;
84084;SDS011;74175;41.730;44.734;2024-01-10T00:49:09;2.17;;;0.30;;
84084;SDS011;74175;41.730;44.734;2024-01-10T00:51:35;1.58;;;0.25;;
84084;SDS011;74175;41.730;44.734;2024-01-10T00:54:01;1.70;;;0.30;;
84084;SDS011;74175;41.730;44.734;2024-01-10T00:56:27;1.80;;;0.30;;
84084;SDS011;74175;41.730;44.734;2024-01-10T00:58:53;2.80;;;0.43;;
84084;SDS011;74175;41.730;44.734;2024-01-10T01:01:23;2.50;;;0.50;;
84084;SDS011;74175;41.730;44.734;2024-01-10T01:03:52;1.95;;;0.40;;
84084;SDS011;74175;41.730;44.734;2024-01-10T01:06:18;1.60;;;0.30;;
84084;SDS011;74175;41.730;44.734;2024-01-10T01:08:44;1.85;;;0.30;;
84084;SDS011;74175;41.730;44.734;2024-01-10T01:11:10;1.70;;;0.30;;
84084;SDS011;74175;41.730;44.734;2024-01-10T01:13:36;2.08;;;0.35;;
84084;SDS011;74175;41.730;44.734;2024-01-10T01:16:03;1.50;;;0.30;;
84084;SDS011;74175;41.730;44.734;2024-01-10T01:18:30;1.88;;;0.30;;
84084;SDS011;74175;41.730;44.734;2024-01-10T01:20:56;1.38;;;0.22;;
84084;SDS011;74175;41.730;44.734;2024-01-10T01:23:22;1.57;;;0.40;;
84084;SDS011;74175;41.730;44.734;2024-01-10T01:25:48;1.40;;;0.30;;
84084;SDS011;74175;41.730;44.734;2024-01-10T01:28:15;2.03;;;0.30;;
84084;SDS011;74175;41.730;44.734;2024-01-10T01:30:41;1.90;;;0.38;;
84084;SDS011;74175;41.730;44.734;2024-01-10T01:33:07;2.33;;;0.30;;
84084;SDS011;74175;41.730;44.734;2024-01-10T01:35:33;2.00;;;0.30;;
84084;SDS011;74175;41.730;44.734;2024-01-10T01:38:00;2.40;;;0.40;;
84084;SDS011;74175;41.730;44.734;2024-01-10T01:40:26;1.60;;;0.30;;
84084;SDS011;74175;41.730;44.734;2024-01-10T01:42:52;2.45;;;0.30;;
84084;SDS011;74175;41.730;44.734;2024-01-10T01:45:19;1.80;;;0.30;;
84084;SDS011;74175;41.730;44.734;2024-01-10T01:47:46;1.60;;;0.30;;
84084;SDS011;74175;41.730;44.734;2024-01-10T01:50:14;1.77;;;0.30;;
84084;SDS011;74175;41.730;44.734;2024-01-10T01:52:41;2.70;;;0.40;;
84084;SDS011;74175;41.730;44.734;2024-01-10T01:55:07;1.88;;;0.30;;
84084;SDS011;74175;41.730;44.734;2024-01-10T01:57:33;1.77;;;0.30;;
84084;SDS011;74175;41.730;44.734;2024-01-10T02:00:00;2.45;;;0.45;;
84084;SDS011;74175;41.730;44.734;2024-01-10T02:02:26;2.30;;;0.40;;
84084;SDS011;74175;41.730;44.734;2024-01-10T02:04:53;1.97;;;0.40;;
84084;SDS011;74175;41.730;44.734;2024-01-10T02:07:20;2.58;;;0.40;;
84084;SDS011;74175;41.730;44.734;2024-01-10T02:09:46;2.75;;;0.40;;
84084;SDS011;74175;41.730;44.734;2024-01-10T02:12:13;2.22;;;0.40;;
84084;SDS011;74175;41.730;44.734;2024-01-10T02:14:39;2.00;;;0.40;;
84084;SDS011;74175;41.730;44.734;2024-01-10T02:17:05;2.20;;;0.50;;
84084;SDS011;74175;41.730;44.734;2024-01-10T02:19:31;1.80;;;0.30;;
84084;SDS011;74175;41.730;44.734;2024-01-10T02:21:58;2.10;;;0.40;;
84084;SDS011;74175;41.730;44.734;2024-01-10T02:24:24;2.38;;;0.30;;
84084;SDS011;74175;41.730;44.734;2024-01-10T02:26:50;2.30;;;0.40;;
84084;SDS011;74175;41.730;44.734;2024-01-10T02:29:16;2.38;;;0.30;;
84084;SDS011;74175;41.730;44.734;2024-01-10T02:31:42;1.90;;;0.30;;
84084;SDS011;74175;41.730;44.734;2024-01-10T02:34:08;2.05;;;0.40;;
84084;SDS011;74175;41.730;44.734;2024-01-10T02:36:34;1.90;;;0.30;;
84084;SDS011;74175;41.730;44.734;2024-01-10T02:39:00;2.00;;;0.30;;
84084;SDS011;74175;41.730;44.734;2024-01-10T02:41:26;1.85;;;0.30;;
84084;SDS011;74175;41.730;44.734;2024-01-10T02:43:53;1.33;;;0.23;;
84084;SDS011;74175;41.730;44.734;2024-01-10T02:46:25;1.88;;;0.30;;
84084;SDS011;74175;41.730;44.734;2024-01-10T02:48:53;3.40;;;0.47;;
84084;SDS011;74175;41.730;44.734;2024-01-10T02:51:21;1.73;;;0.30;;
84084;SDS011;74175;41.730;44.734;2024-01-10T02:53:47;1.70;;;0.30;;
84084;SDS011;74175;41.730;44.734;2024-01-10T02:56:13;1.85;;;0.30;;
84084;SDS011;74175;41.730;44.734;2024-01-10T02:58:40;1.40;;;0.30;;
84084;SDS011;74175;41.730;44.734;2024-01-10T03:01:06;1.30;;;0.30;;
84084;SDS011;74175;41.730;44.734;2024-01-10T03:03:32;1.55;;;0.30;;
84084;SDS011;74175;41.730;44.734;2024-01-10T03:05:58;1.90;;;0.40;;
84084;SDS011;74175;41.730;44.734;2024-01-10T03:08:24;1.88;;;0.40;;
84084;SDS011;74175;41.730;44.734;2024-01-10T03:10:50;1.57;;;0.30;;
84084;SDS011;74175;41.730;44.734;2024-01-10T03:13:16;1.80;;;0.30;;
84084;SDS011;74175;41.730;44.734;2024-01-10T03:15:42;2.63;;;0.40;;
84084;SDS011;74175;41.730;44.734;2024-01-10T03:18:08;2.05;;;0.30;;
84084;SDS011;74175;41.730;44.734;2024-01-10T03:20:34;1.80;;;0.20;;
84084;SDS011;74175;41.730;44.734;2024-01-10T03:23:00;2.55;;;0.45;;
84084;SDS011;74175;41.730;44.734;2024-01-10T03:25:26;2.03;;;0.40;;
84084;SDS011;74175;41.730;44.734;2024-01-10T03:27:52;1.80;;;0.30;;
84084;SDS011;74175;41.730;44.734;2024-01-10T03:30:18;1.80;;;0.30;;
84084;SDS011;74175;41.730;44.734;2024-01-10T03:32:45;1.77;;;0.30;;
84084;SDS011;74175;41.730;44.734;2024-01-10T03:35:14;1.77;;;0.30;;
84084;SDS011;74175;41.730;44.734;2024-01-10T03:37:41;2.70;;;0.30;;
84084;SDS011;74175;41.730;44.734;2024-01-10T03:40:07;2.00;;;0.37;;
84084;SDS011;74175;41.730;44.734;2024-01-10T03:42:36;2.05;;;0.30;;
84084;SDS011;74175;41.730;44.734;2024-01-10T03:45:02;1.58;;;0.30;;
84084;SDS011;74175;41.730;44.734;2024-01-10T03:47:29;1.80;;;0.30;;
84084;SDS011;74175;41.730;44.734;2024-01-10T03:49:55;2.42;;;0.30;;
84084;SDS011;74175;41.730;44.734;2024-01-10T03:52:21;1.83;;;0.30;;
84084;SDS011;74175;41.730;44.734;2024-01-10T03:54:48;1.90;;;0.40;;
84084;SDS011;74175;41.730;44.734;2024-01-10T03:57:14;2.10;;;0.30;;
84084;SDS011;74175;41.730;44.734;2024-01-10T03:59:40;2.67;;;0.30;;
84084;SDS011;74175;41.730;44.734;2024-01-10T04:02:06;3.05;;;0.40;;
84084;SDS011;74175;41.730;44.734;2024-01-10T04:04:32;1.95;;;0.35;;
84084;SDS011;74175;41.730;44.734;2024-01-10T04:06:58;1.70;;;0.30;;
84084;SDS011;74175;41.730;44.734;2024-01-10T04:09:24;1.85;;;0.30;;
84084;SDS011;74175;41.730;44.734;2024-01-10T04:11:50;1.90;;;0.40;;
84084;SDS011;74175;41.730;44.734;2024-01-10T04:14:16;2.58;;;0.38;;
84084;SDS011;74175;41.730;44.734;2024-01-10T04:16:42;2.10;;;0.40;;
84084;SDS011;74175;41.730;44.734;2024-01-10T04:19:09;2.73;;;0.43;;
84084;SDS011;74175;41.730;44.734;2024-01-10T04:21:35;3.90;;;0.90;;
84084;SDS011;74175;41.730;44.734;2024-01-10T04:24:01;3.03;;;0.60;;
84084;SDS011;74175;41.730;44.734;2024-01-10T04:26:27;2.60;;;0.50;;
84084;SDS011;74175;41.730;44.734;2024-01-10T04:28:53;2.67;;;0.50;;
84084;SDS011;74175;41.730;44.734;2024-01-10T04:31:19;3.17;;;0.40;;
84084;SDS011;74175;41.730;44.734;2024-01-10T04:33:45;2.67;;;0.43;;
84084;SDS011;74175;41.730;44.734;2024-01-10T04:36:11;2.30;;;0.40;;
84084;SDS011;74175;41.730;44.734;2024-01-10T04:38:37;2.20;;;0.40;;
84084;SDS011;74175;41.730;44.734;2024-01-10T04:41:03;2.83;;;0.40;;
84084;SDS011;74175;41.730;44.734;2024-01-10T04:43:29;2.17;;;0.40;;
84084;SDS011;74175;41.730;44.734;2024-01-10T04:45:58;2.58;;;0.50;;
84084;SDS011;74175;41.730;44.734;2024-01-10T04:48:24;3.15;;;0.55;;
84084;SDS011;74175;41.730;44.734;2024-01-10T04:50:50;2.70;;;0.40;;
84084;SDS011;74175;41.730;44.734;2024-01-10T04:53:17;2.50;;;0.40;;
84084;SDS011;74175;41.730;44.734;2024-01-10T04:55:48;3.65;;;0.40;;
84084;SDS011;74175;41.730;44.734;2024-01-10T04:58:14;2.33;;;0.40;;
84084;SDS011;74175;41.730;44.734;2024-01-10T05:00:40;2.40;;;0.50;;
84084;SDS011;74175;41.730;44.734;2024-01-10T05:03:06;2.00;;;0.40;;
84084;SDS011;74175;41.730;44.734;2024-01-10T05:05:32;6.60;;;0.63;;
84084;SDS011;74175;41.730;44.734;2024-01-10T05:07:59;2.72;;;0.68;;
84084;SDS011;74175;41.730;44.734;2024-01-10T05:10:27;3.33;;;0.80;;
84084;SDS011;74175;41.730;44.734;2024-01-10T05:12:53;2.90;;;0.70;;
84084;SDS011;74175;41.730;44.734;2024-01-10T05:15:19;5.22;;;1.20;;
84084;SDS011;74175;41.730;44.734;2024-01-10T05:17:45;3.53;;;0.90;;
84084;SDS011;74175;41.730;44.734;2024-01-10T05:20:13;4.03;;;1.10;;
84084;SDS011;74175;41.730;44.734;2024-01-10T05:22:40;3.42;;;0.80;;
84084;SDS011;74175;41.730;44.734;2024-01-10T05:25:06;4.10;;;0.90;;
84084;SDS011;74175;41.730;44.734;2024-01-10T05:27:32;3.80;;;0.85;;
84084;SDS011;74175;41.730;44.734;2024-01-10T05:29:58;2.90;;;0.77;;
84084;SDS011;74175;41.730;44.734;2024-01-10T05:32:26;3.57;;;0.97;;
84084;SDS011;74175;41.730;44.734;2024-01-10T05:34:55;5.18;;;1.27;;
84084;SDS011;74175;41.730;44.734;2024-01-10T05:37:21;4.00;;;1.10;;
84084;SDS011;74175;41.730;44.734;2024-01-10T05:39:48;2.80;;;0.93;;
84084;SDS011;74175;41.730;44.734;2024-01-10T05:42:15;3.13;;;0.90;;
84084;SDS011;74175;41.730;44.734;2024-01-10T05:44:41;3.45;;;1.02;;
84084;SDS011;74175;41.730;44.734;2024-01-10T05:47:07;3.50;;;1.10;;
84084;SDS011;74175;41.730;44.734;2024-01-10T05:49:33;3.58;;;1.10;;
84084;SDS011;74175;41.730;44.734;2024-01-10T05:51:59;4.28;;;1.00;;
84084;SDS011;74175;41.730;44.734;2024-01-10T05:54:25;3.60;;;1.13;;
84084;SDS011;74175;41.730;44.734;2024-01-10T05:56:52;7.20;;;1.60;;
84084;SDS011;74175;41.730;44.734;2024-01-10T05:59:19;4.28;;;0.80;;
84084;SDS011;74175;41.730;44.734;2024-01-10T06:01:45;3.50;;;1.00;;
84084;SDS011;74175;41.730;44.734;2024-01-10T06:04:11;4.07;;;0.80;;
84084;SDS011;74175;41.730;44.734;2024-01-10T06:06:37;3.08;;;1.00;;
84084;SDS011;74175;41.730;44.734;2024-01-10T06:09:03;4.32;;;0.80;;
84084;SDS011;74175;41.730;44.734;2024-01-10T06:11:30;3.13;;;0.90;;
84084;SDS011;74175;41.730;44.734;2024-01-10T06:13:56;4.35;;;0.95;;
84084;SDS011;74175;41.730;44.734;2024-01-10T06:16:23;3.38;;;1.00;;
84084;SDS011;74175;41.730;44.734;2024-01-10T06:18:50;4.30;;;1.40;;
84084;SDS011;74175;41.730;44.734;2024-01-10T06:21:16;4.55;;;1.50;;
84084;SDS011;74175;41.730;44.734;2024-01-10T06:23:42;5.75;;;1.70;;
84084;SDS011;74175;41.730;44.734;2024-01-10T06:26:08;4.55;;;1.20;;
84084;SDS011;74175;41.730;44.734;2024-01-10T06:28:35;5.78;;;1.17;;
84084;SDS011;74175;41.730;44.734;2024-01-10T06:31:01;4.80;;;1.20;;
84084;SDS011;74175;41.730;44.734;2024-01-10T06:33:27;4.45;;;1.30;;
84084;SDS011;74175;41.730;44.734;2024-01-10T06:35:53;3.90;;;1.03;;
84084;SDS011;74175;41.730;44.734;2024-01-10T06:38:20;4.30;;;1.38;;
84084;SDS011;74175;41.730;44.734;2024-01-10T06:40:48;3.95;;;1.00;;
84084;SDS011;74175;41.730;44.734;2024-01-10T06:43:14;5.00;;;1.20;;
84084;SDS011;74175;41.730;44.734;2024-01-10T06:45:40;4.50;;;1.35;;
84084;SDS011;74175;41.730;44.734;2024-01-10T06:48:07;3.08;;;0.80;;
84084;SDS011;74175;41.730;44.734;2024-01-10T06:50:34;4.77;;;1.30;;
84084;SDS011;74175;41.730;44.734;2024-01-10T06:53:00;6.05;;;1.02;;
84084;SDS011;74175;41.730;44.734;2024-01-10T06:55:26;4.00;;;1.00;;
84084;SDS011;74175;41.730;44.734;2024-01-10T06:57:54;5.22;;;1.30;;
84084;SDS011;74175;41.730;44.734;2024-01-10T07:00:21;3.33;;;0.90;;
84084;SDS011;74175;41.730;44.734;2024-01-10T07:02:48;4.47;;;1.17;;
84084;SDS011;74175;41.730;44.734;2024-01-10T07:05:14;3.43;;;1.10;;
84084;SDS011;74175;41.730;44.734;2024-01-10T07:07:41;3.25;;;0.90;;
84084;SDS011;74175;41.730;44.734;2024-01-10T07:10:07;3.92;;;1.23;;
84084;SDS011;74175;41.730;44.734;2024-01-10T07:12:34;3.72;;;0.90;;
84084;SDS011;74175;41.730;44.734;2024-01-10T07:15:00;3.38;;;0.80;;
84084;SDS011;74175;41.730;44.734;2024-01-10T07:17:28;2.90;;;0.47;;
84084;SDS011;74175;41.730;44.734;2024-01-10T07:19:54;2.40;;;0.50;;
84084;SDS011;74175;41.730;44.734;2024-01-10T07:22:22;3.53;;;0.60;;
84084;SDS011;74175;41.730;44.734;2024-01-10T07:24:49;3.13;;;0.60;;
84084;SDS011;74175;41.730;44.734;2024-01-10T07:27:16;2.72;;;0.70;;
84084;SDS011;74175;41.730;44.734;2024-01-10T07:29:44;3.20;;;0.63;;
84084;SDS011;74175;41.730;44.734;2024-01-10T07:32:10;3.63;;;0.70;;
84084;SDS011;74175;41.730;44.734;2024-01-10T07:34:39;4.25;;;1.30;;
84084;SDS011;74175;41.730;44.734;2024-01-10T07:37:06;5.32;;;1.60;;
84084;SDS011;74175;41.730;44.734;2024-01-10T07:39:34;5.18;;;1.85;;
84084;SDS011;74175;41.730;44.734;2024-01-10T07:42:01;8.82;;;2.28;;
84084;SDS011;74175;41.730;44.734;2024-01-10T07:44:32;4.97;;;1.70;;
84084;SDS011;74175;41.730;44.734;2024-01-10T07:46:58;4.30;;;1.20;;
84084;SDS011;74175;41.730;44.734;2024-01-10T07:49:24;7.75;;;1.90;;
84084;SDS011;74175;41.730;44.734;2024-01-10T07:51:50;5.72;;;2.40;;
84084;SDS011;74175;41.730;44.734;2024-01-10T07:54:17;5.25;;;2.17;;
84084;SDS011;74175;41.730;44.734;2024-01-10T07:56:43;5.70;;;2.10;;
84084;SDS011;74175;41.730;44.734;2024-01-10T07:59:10;4.87;;;1.73;;
84084;SDS011;74175;41.730;44.734;2024-01-10T08:01:40;5.30;;;2.00;;
84084;SDS011;74175;41.730;44.734;2024-01-10T08:04:06;4.30;;;1.67;;
84084;SDS011;74175;41.730;44.734;2024-01-10T08:06:33;4.78;;;1.45;;
84084;SDS011;74175;41.730;44.734;2024-01-10T08:09:01;4.07;;;1.00;;
84084;SDS011;74175;41.730;44.734;2024-01-10T08:11:29;5.88;;;1.67;;
84084;SDS011;74175;41.730;44.734;2024-01-10T08:13:56;4.32;;;1.75;;
84084;SDS011;74175;41.730;44.734;2024-01-10T08:16:22;4.05;;;1.15;;
84084;SDS011;74175;41.730;44.734;2024-01-10T08:18:48;3.80;;;1.40;;
84084;SDS011;74175;41.730;44.734;2024-01-10T08:21:14;6.33;;;1.60;;
84084;SDS011;74175;41.730;44.734;2024-01-10T08:23:40;6.80;;;2.10;;
84084;SDS011;74175;41.730;44.734;2024-01-10T08:26:07;5.45;;;2.17;;
84084;SDS011;74175;41.730;44.734;2024-01-10T08:28:33;4.72;;;1.42;;
84084;SDS011;74175;41.730;44.734;2024-01-10T08:30:59;4.72;;;1.58;;
84084;SDS011;74175;41.730;44.734;2024-01-10T08:33:26;8.13;;;2.87;;
84084;SDS011;74175;41.730;44.734;2024-01-10T08:35:52;5.60;;;1.57;;
84084;SDS011;74175;41.730;44.734;2024-01-10T08:38:19;4.53;;;1.63;;
84084;SDS011;74175;41.730;44.734;2024-01-10T08:40:45;4.22;;;1.40;;
84084;SDS011;74175;41.730;44.734;2024-01-10T08:43:12;4.32;;;1.00;;
84084;SDS011;74175;41.730;44.734;2024-01-10T08:45:38;4.40;;;0.75;;
84084;SDS011;74175;41.730;44.734;2024-01-10T08:48:04;2.40;;;0.50;;
84084;SDS011;74175;41.730;44.734;2024-01-10T08:50:32;2.50;;;0.40;;
84084;SDS011;74175;41.730;44.734;2024-01-10T08:52:59;2.60;;;0.50;;
84084;SDS011;74175;41.730;44.734;2024-01-10T08:55:29;2.50;;;0.50;;
84084;SDS011;74175;41.730;44.734;2024-01-10T08:57:55;4.68;;;0.70;;
84084;SDS011;74175;41.730;44.734;2024-01-10T09:00:21;3.45;;;0.60;;
84084;SDS011;74175;41.730;44.734;2024-01-10T09:02:48;2.78;;;0.57;;
84084;SDS011;74175;41.730;44.734;2024-01-10T09:05:19;3.42;;;0.85;;
84084;SDS011;74175;41.730;44.734;2024-01-10T09:07:47;9.55;;;4.38;;
84084;SDS011;74175;41.730;44.734;2024-01-10T09:10:13;12.90;;;5.40;;
84084;SDS011;74175;41.730;44.734;2024-01-10T09:12:39;14.52;;;5.90;;
84084;SDS011;74175;41.730;44.734;2024-01-10T09:15:09;12.95;;;5.20;;
84084;SDS011;74175;41.730;44.734;2024-01-10T09:17:39;10.70;;;4.47;;
84084;SDS011;74175;41.730;44.734;2024-01-10T09:20:06;10.95;;;4.38;;
84084;SDS011;74175;41.730;44.734;2024-01-10T09:22:34;10.20;;;4.47;;
84084;SDS011;74175;41.730;44.734;2024-01-10T09:27:50;11.30;;;4.22;;
84084;SDS011;74175;41.730;44.734;2024-01-10T09:30:16;8.50;;;4.55;;
84084;SDS011;74175;41.730;44.734;2024-01-10T09:32:44;8.30;;;3.75;;
84084;SDS011;74175;41.730;44.734;2024-01-10T09:35:12;9.48;;;3.95;;
84084;SDS011;74175;41.730;44.734;2024-01-10T09:37:40;10.23;;;3.80;;
84084;SDS011;74175;41.730;44.734;2024-01-10T09:40:13;10.38;;;4.60;;
84084;SDS011;74175;41.730;44.734;2024-01-10T09:42:45;8.35;;;4.05;;
84084;SDS011;74175;41.730;44.734;2024-01-10T09:45:15;8.23;;;3.70;;
84084;SDS011;74175;41.730;44.734;2024-01-10T09:47:55;7.60;;;3.63;;
84084;SDS011;74175;41.730;44.734;2024-01-10T09:50:22;10.27;;;3.67;;
84084;SDS011;74175;41.730;44.734;2024-01-10T09:52:52;9.60;;;3.95;;
84084;SDS011;74175;41.730;44.734;2024-01-10T09:55:23;9.25;;;3.78;;
84084;SDS011;74175;41.730;44.734;2024-01-10T09:57:49;7.65;;;3.15;;
84084;SDS011;74175;41.730;44.734;2024-01-10T10:00:16;8.30;;;3.17;;
84084;SDS011;74175;41.730;44.734;2024-01-10T10:02:42;9.90;;;4.20;;
84084;SDS011;74175;41.730;44.734;2024-01-10T10:05:16;9.45;;;4.00;;
84084;SDS011;74175;41.730;44.734;2024-01-10T10:07:46;9.93;;;3.88;;
84084;SDS011;74175;41.730;44.734;2024-01-10T10:10:17;7.28;;;3.22;;
84084;SDS011;74175;41.730;44.734;2024-01-10T10:12:47;6.97;;;3.00;;
84084;SDS011;74175;41.730;44.734;2024-01-10T10:15:15;7.03;;;2.20;;
84084;SDS011;74175;41.730;44.734;2024-01-10T10:17:43;6.05;;;2.83;;
84084;SDS011;74175;41.730;44.734;2024-01-10T10:20:27;5.90;;;2.22;;
84084;SDS011;74175;41.730;44.734;2024-01-10T10:25:43;6.32;;;1.60;;
84084;SDS011;74175;41.730;44.734;2024-01-10T10:28:13;4.05;;;1.20;;
84084;SDS011;74175;41.730;44.734;2024-01-10T10:30:39;6.33;;;1.97;;
84084;SDS011;74175;41.730;44.734;2024-01-10T10:33:06;5.18;;;1.55;;
84084;SDS011;74175;41.730;44.734;2024-01-10T10:35:34;4.93;;;1.50;;
84084;SDS011;74175;41.730;44.734;2024-01-10T10:38:00;5.68;;;1.67;;
84084;SDS011;74175;41.730;44.734;2024-01-10T10:40:26;5.30;;;2.22;;
84084;SDS011;74175;41.730;44.734;2024-01-10T10:42:55;7.70;;;2.83;;
84084;SDS011;74175;41.730;44.734;2024-01-10T10:45:24;7.78;;;3.05;;
84084;SDS011;74175;41.730;44.734;2024-01-10T10:47:58;7.73;;;3.23;;
84084;SDS011;74175;41.730;44.734;2024-01-10T10:50:27;5.95;;;2.53;;
84084;SDS011;74175;41.730;44.734;2024-01-10T10:52:55;5.75;;;2.38;;
84084;SDS011;74175;41.730;44.734;2024-01-10T10:55:22;6.43;;;2.70;;
84084;SDS011;74175;41.730;44.734;2024-01-10T10:57:50;8.20;;;2.83;;
84084;SDS011;74175;41.730;44.734;2024-01-10T11:00:20;6.77;;;3.17;;
84084;SDS011;74175;41.730;44.734;2024-01-10T11:02:56;7.75;;;3.08;;
84084;SDS011;74175;41.730;44.734;2024-01-10T11:05:25;6.45;;;2.60;;
84084;SDS011;74175;41.730;44.734;2024-01-10T11:07:51;6.72;;;2.55;;
84084;SDS011;74175;41.730;44.734;2024-01-10T11:10:26;7.55;;;3.10;;
84084;SDS011;74175;41.730;44.734;2024-01-10T11:13:21;7.07;;;3.00;;
84084;SDS011;74175;41.730;44.734;2024-01-10T11:16:08;9.68;;;2.92;;
84084;SDS011;74175;41.730;44.734;2024-01-10T11:24:39;4.53;;;1.50;;
84084;SDS011;74175;41.730;44.734;2024-01-10T11:27:07;7.70;;;3.27;;
84084;SDS011;74175;41.730;44.734;2024-01-10T11:29:40;4.47;;;1.65;;
84084;SDS011;74175;41.730;44.734;2024-01-10T11:32:14;5.85;;;2.40;;
84084;SDS011;74175;41.730;44.734;2024-01-10T11:37:19;5.35;;;1.65;;
84084;SDS011;74175;41.730;44.734;2024-01-10T11:39:46;5.13;;;1.50;;
84084;SDS011;74175;41.730;44.734;2024-01-10T11:42:20;4.83;;;1.90;;
84084;SDS011;74175;41.730;44.734;2024-01-10T11:44:49;5.40;;;2.08;;
84084;SDS011;74175;41.730;44.734;2024-01-10T11:47:16;6.53;;;2.40;;
84084;SDS011;74175;41.730;44.734;2024-01-10T11:49:53;6.63;;;2.85;;
84084;SDS011;74175;41.730;44.734;2024-01-10T11:52:23;5.82;;;2.17;;
84084;SDS011;74175;41.730;44.734;2024-01-10T11:54:58;7.25;;;3.13;;
84084;SDS011;74175;41.730;44.734;2024-01-10T11:57:27;5.87;;;2.00;;
84084;SDS011;74175;41.730;44.734;2024-01-10T11:59:57;6.35;;;2.10;;
84084;SDS011;74175;41.730;44.734;2024-01-10T12:02:30;4.97;;;1.73;;
84084;SDS011;74175;41.730;44.734;2024-01-10T12:04:56;4.60;;;1.67;;
84084;SDS011;74175;41.730;44.734;2024-01-10T12:07:22;4.53;;;1.42;;
84084;SDS011;74175;41.730;44.734;2024-01-10T12:09:51;4.35;;;1.50;;
84084;SDS011;74175;41.730;44.734;2024-01-10T12:12:17;5.40;;;1.57;;
84084;SDS011;74175;41.730;44.734;2024-01-10T12:14:45;4.38;;;1.30;;
84084;SDS011;74175;41.730;44.734;2024-01-10T12:17:11;5.35;;;1.80;;
84084;SDS011;74175;41.730;44.734;2024-01-10T12:19:39;3.90;;;1.42;;
84084;SDS011;74175;41.730;44.734;2024-01-10T12:22:06;5.25;;;1.40;;
84084;SDS011;74175;41.730;44.734;2024-01-10T12:24:33;4.60;;;1.67;;
84084;SDS011;74175;41.730;44.734;2024-01-10T12:26:59;4.77;;;1.50;;
84084;SDS011;74175;41.730;44.734;2024-01-10T12:29:25;5.50;;;1.70;;
84084;SDS011;74175;41.730;44.734;2024-01-10T12:31:53;5.07;;;1.50;;
84084;SDS011;74175;41.730;44.734;2024-01-10T12:34:19;5.75;;;1.67;;
84084;SDS011;74175;41.730;44.734;2024-01-10T12:36:47;5.68;;;2.35;;
84084;SDS011;74175;41.730;44.734;2024-01-10T12:39:13;5.93;;;2.42;;
84084;SDS011;74175;41.730;44.734;2024-01-10T12:41:41;5.50;;;1.73;;
84084;SDS011;74175;41.730;44.734;2024-01-10T12:44:09;5.40;;;2.20;;
84084;SDS011;74175;41.730;44.734;2024-01-10T12:49:29;7.10;;;3.03;;
84084;SDS011;74175;41.730;44.734;2024-01-10T12:51:55;5.90;;;2.47;;
84084;SDS011;74175;41.730;44.734;2024-01-10T12:54:22;9.02;;;4.43;;
84084;SDS011;74175;41.730;44.734;2024-01-10T12:56:48;15.18;;;7.72;;
84084;SDS011;74175;41.730;44.734;2024-01-10T12:59:16;10.07;;;4.75;;
84084;SDS011;74175;41.730;44.734;2024-01-10T13:01:42;8.27;;;4.07;;
84084;SDS011;74175;41.730;44.734;2024-01-10T13:04:08;26.98;;;9.50;;
84084;SDS011;74175;41.730;44.734;2024-01-10T13:06:34;120.55;;;40.17;;
84084;SDS011;74175;41.730;44.734;2024-01-10T13:09:02;55.42;;;25.60;;
84084;SDS011;74175;41.730;44.734;2024-01-10T13:11:28;34.92;;;15.25;;
84084;SDS011;74175;41.730;44.734;2024-01-10T13:13:55;32.85;;;17.10;;
84084;SDS011;74175;41.730;44.734;2024-01-10T13:16:21;13.25;;;7.60;;
84084;SDS011;74175;41.730;44.734;2024-01-10T13:18:48;9.17;;;5.13;;
84084;SDS011;74175;41.730;44.734;2024-01-10T13:21:16;8.83;;;5.03;;
84084;SDS011;74175;41.730;44.734;2024-01-10T13:23:42;6.63;;;2.95;;
84084;SDS011;74175;41.730;44.734;2024-01-10T13:26:08;5.00;;;2.13;;
84084;SDS011;74175;41.730;44.734;2024-01-10T13:28:36;4.53;;;2.00;;
84084;SDS011;74175;41.730;44.734;2024-01-10T13:31:04;18.15;;;10.60;;
84084;SDS011;74175;41.730;44.734;2024-01-10T13:33:30;23.40;;;13.45;;
84084;SDS011;74175;41.730;44.734;2024-01-10T13:35:56;12.05;;;8.15;;
84084;SDS011;74175;41.730;44.734;2024-01-10T13:38:22;8.70;;;5.35;;
84084;SDS011;74175;41.730;44.734;2024-01-10T13:40:49;8.03;;;3.83;;
84084;SDS011;74175;41.730;44.734;2024-01-10T13:43:15;6.30;;;2.75;;
84084;SDS011;74175;41.730;44.734;2024-01-10T13:45:42;6.35;;;2.70;;
84084;SDS011;74175;41.730;44.734;2024-01-10T13:51:00;5.82;;;2.60;;
84084;SDS011;74175;41.730;44.734;2024-01-10T13:53:29;4.88;;;1.88;;
84084;SDS011;74175;41.730;44.734;2024-01-10T13:55:55;6.20;;;2.35;;
84084;SDS011;74175;41.730;44.734;2024-01-10T13:58:22;7.87;;;4.07;;
84084;SDS011;74175;41.730;44.734;2024-01-10T14:00:49;6.50;;;2.85;;
84084;SDS011;74175;41.730;44.734;2024-01-10T14:03:15;5.50;;;2.00;;
84084;SDS011;74175;41.730;44.734;2024-01-10T14:05:41;6.10;;;2.28;;
84084;SDS011;74175;41.730;44.734;2024-01-10T14:08:08;4.88;;;1.83;;
84084;SDS011;74175;41.730;44.734;2024-01-10T14:10:34;5.78;;;2.30;;
84084;SDS011;74175;41.730;44.734;2024-01-10T14:13:00;8.27;;;4.05;;
84084;SDS011;74175;41.730;44.734;2024-01-10T14:15:26;5.78;;;2.45;;
84084;SDS011;74175;41.730;44.734;2024-01-10T14:17:53;5.40;;;2.35;;
84084;SDS011;74175;41.730;44.734;2024-01-10T14:20:19;12.13;;;4.13;;
84084;SDS011;74175;41.730;44.734;2024-01-10T14:23:30;10.23;;;4.70;;
84084;SDS011;74175;41.730;44.734;2024-01-10T14:25:56;6.60;;;2.83;;
84084;SDS011;74175;41.730;44.734;2024-01-10T14:28:22;8.38;;;4.10;;
84084;SDS011;74175;41.730;44.734;2024-01-10T14:30:48;7.18;;;3.55;;
84084;SDS011;74175;41.730;44.734;2024-01-10T14:33:15;6.88;;;2.85;;
84084;SDS011;74175;41.730;44.734;2024-01-10T14:35:41;8.65;;;4.43;;
84084;SDS011;74175;41.730;44.734;2024-01-10T14:38:08;7.85;;;3.30;;
84084;SDS011;74175;41.730;44.734;2024-01-10T14:40:34;7.97;;;4.50;;
84084;SDS011;74175;41.730;44.734;2024-01-10T14:43:00;7.40;;;3.93;;
84084;SDS011;74175;41.730;44.734;2024-01-10T14:45:26;6.83;;;3.57;;
84084;SDS011;74175;41.730;44.734;2024-01-10T14:47:54;5.82;;;2.85;;
84084;SDS011;74175;41.730;44.734;2024-01-10T14:50:20;8.30;;;3.40;;
84084;SDS011;74175;41.730;44.734;2024-01-10T14:53:05;5.63;;;2.55;;